sensor_id;sensor_type;location;lat;lon;timestamp;temperature;humidity
12119;DHT22;6123;48.864;9.200;2022-12-07T00:01:15;3.60;99.90
12119;DHT22;6123;48.864;9.200;2022-12-07T00:03:44;3.60;99.90
12119;DHT22;6123;48.864;9.200;2022-12-07T00:06:13;3.60;99.90
12119;DHT22;6123;48.864;9.200;2022-12-07T00:08:39;3.60;99.90
12119;DHT22;6123;48.864;9.200;2022-12-07T00:11:19;3.60;99.90
12119;DHT22;6123;48.864;9.200;2022-12-07T00:13:45;3.50;99.90
12119;DHT22;6123;48.864;9.200;2022-12-07T00:16:17;3.60;99.90
12119;DHT22;6123;48.864;9.200;2022-12-07T00:18:48;3.60;99.90
12119;DHT22;6123;48.864;9.200;2022-12-07T00:21:19;3.50;99.90
12119;DHT22;6123;48.864;9.200;2022-12-07T00:23:46;3.60;99.90
12119;DHT22;6123;48.864;9.200;2022-12-07T00:26:14;3.60;99.90
12119;DHT22;6123;48.864;9.200;2022-12-07T00:28:39;3.50;99.90
12119;DHT22;6123;48.864;9.200;2022-12-07T00:31:15;3.60;99.90
12119;DHT22;6123;48.864;9.200;2022-12-07T00:33:41;3.60;99.90
12119;DHT22;6123;48.864;9.200;2022-12-07T00:36:13;3.60;99.90
12119;DHT22;6123;48.864;9.200;2022-12-07T00:38:39;3.60;99.90
12119;DHT22;6123;48.864;9.200;2022-12-07T00:41:09;3.60;99.90
12119;DHT22;6123;48.864;9.200;2022-12-07T00:43:41;3.70;99.90
12119;DHT22;6123;48.864;9.200;2022-12-07T00:46:07;3.70;99.90
12119;DHT22;6123;48.864;9.200;2022-12-07T00:48:33;3.70;99.90
12119;DHT22;6123;48.864;9.200;2022-12-07T00:50:59;3.50;99.90
12119;DHT22;6123;48.864;9.200;2022-12-07T00:53:27;3.60;99.90
12119;DHT22;6123;48.864;9.200;2022-12-07T00:55:52;3.60;99.90
12119;DHT22;6123;48.864;9.200;2022-12-07T00:58:21;3.50;99.90
12119;DHT22;6123;48.864;9.200;2022-12-07T01:00:47;3.50;99.90
12119;DHT22;6123;48.864;9.200;2022-12-07T01:03:14;3.40;99.90
12119;DHT22;6123;48.864;9.200;2022-12-07T01:05:40;3.40;99.90
12119;DHT22;6123;48.864;9.200;2022-12-07T01:08:06;3.50;99.90
12119;DHT22;6123;48.864;9.200;2022-12-07T01:10:34;3.40;99.90
12119;DHT22;6123;48.864;9.200;2022-12-07T01:13:02;3.50;99.90
12119;DHT22;6123;48.864;9.200;2022-12-07T01:15:28;3.40;99.90
12119;DHT22;6123;48.864;9.200;2022-12-07T01:17:53;3.40;99.90
12119;DHT22;6123;48.864;9.200;2022-12-07T01:20:20;3.60;99.90
12119;DHT22;6123;48.864;9.200;2022-12-07T01:22:45;3.50;99.90
12119;DHT22;6123;48.864;9.200;2022-12-07T01:25:11;3.40;99.90
12119;DHT22;6123;48.864;9.200;2022-12-07T01:27:39;3.40;99.90
12119;DHT22;6123;48.864;9.200;2022-12-07T01:30:06;3.40;99.90
12119;DHT22;6123;48.864;9.200;2022-12-07T01:32:33;3.40;99.90
12119;DHT22;6123;48.864;9.200;2022-12-07T01:35:01;3.40;99.90
12119;DHT22;6123;48.864;9.200;2022-12-07T01:37:27;3.50;99.90
12119;DHT22;6123;48.864;9.200;2022-12-07T01:39:55;3.40;99.90
12119;DHT22;6123;48.864;9.200;2022-12-07T01:42:20;3.40;99.90
12119;DHT22;6123;48.864;9.200;2022-12-07T01:47:47;3.50;99.90
12119;DHT22;6123;48.864;9.200;2022-12-07T01:50:15;3.60;99.90
12119;DHT22;6123;48.864;9.200;2022-12-07T01:52:41;3.50;99.90
12119;DHT22;6123;48.864;9.200;2022-12-07T01:55:11;3.60;99.90
12119;DHT22;6123;48.864;9.200;2022-12-07T01:57:40;3.60;99.90
12119;DHT22;6123;48.864;9.200;2022-12-07T02:00:08;3.60;99.90
12119;DHT22;6123;48.864;9.200;2022-12-07T02:02:41;3.60;99.90
12119;DHT22;6123;48.864;9.200;2022-12-07T02:05:11;3.50;99.90
12119;DHT22;6123;48.864;9.200;2022-12-07T02:07:38;3.40;99.90
12119;DHT22;6123;48.864;9.200;2022-12-07T02:12:42;3.60;99.90
12119;DHT22;6123;48.864;9.200;2022-12-07T02:15:09;3.70;99.90
12119;DHT22;6123;48.864;9.200;2022-12-07T02:18:06;3.70;99.90
12119;DHT22;6123;48.864;9.200;2022-12-07T02:31:55;3.60;99.90
12119;DHT22;6123;48.864;9.200;2022-12-07T02:34:28;3.60;99.90
12119;DHT22;6123;48.864;9.200;2022-12-07T02:36:59;3.70;99.90
12119;DHT22;6123;48.864;9.200;2022-12-07T02:39:37;3.70;99.90
12119;DHT22;6123;48.864;9.200;2022-12-07T02:42:12;3.70;99.90
12119;DHT22;6123;48.864;9.200;2022-12-07T02:44:41;3.70;99.90
12119;DHT22;6123;48.864;9.200;2022-12-07T02:47:10;3.70;99.90
12119;DHT22;6123;48.864;9.200;2022-12-07T02:49:40;3.70;99.90
12119;DHT22;6123;48.864;9.200;2022-12-07T02:52:08;3.60;99.90
12119;DHT22;6123;48.864;9.200;2022-12-07T02:54:37;3.70;99.90
12119;DHT22;6123;48.864;9.200;2022-12-07T03:00:06;3.70;99.90
12119;DHT22;6123;48.864;9.200;2022-12-07T03:11:00;3.50;99.90
12119;DHT22;6123;48.864;9.200;2022-12-07T03:16:25;3.50;99.90
12119;DHT22;6123;48.864;9.200;2022-12-07T03:19:15;3.60;99.90
12119;DHT22;6123;48.864;9.200;2022-12-07T03:22:12;3.60;99.90
12119;DHT22;6123;48.864;9.200;2022-12-07T03:24:44;3.70;99.90
12119;DHT22;6123;48.864;9.200;2022-12-07T03:27:21;3.60;99.90
12119;DHT22;6123;48.864;9.200;2022-12-07T03:29:56;3.60;99.90
12119;DHT22;6123;48.864;9.200;2022-12-07T03:35:25;3.60;99.90
12119;DHT22;6123;48.864;9.200;2022-12-07T03:41:04;3.60;99.90
12119;DHT22;6123;48.864;9.200;2022-12-07T03:43:31;3.50;99.90
12119;DHT22;6123;48.864;9.200;2022-12-07T03:46:03;3.50;99.90
12119;DHT22;6123;48.864;9.200;2022-12-07T03:48:42;3.60;99.90
12119;DHT22;6123;48.864;9.200;2022-12-07T03:51:22;3.50;99.90
12119;DHT22;6123;48.864;9.200;2022-12-07T03:56:26;3.40;99.90
12119;DHT22;6123;48.864;9.200;2022-12-07T03:58:56;3.40;99.90
12119;DHT22;6123;48.864;9.200;2022-12-07T04:01:23;3.40;99.90
12119;DHT22;6123;48.864;9.200;2022-12-07T04:03:53;3.40;99.90
12119;DHT22;6123;48.864;9.200;2022-12-07T04:06:19;3.40;99.90
12119;DHT22;6123;48.864;9.200;2022-12-07T04:08:44;3.30;99.90
12119;DHT22;6123;48.864;9.200;2022-12-07T04:11:10;3.40;99.90
12119;DHT22;6123;48.864;9.200;2022-12-07T04:13:36;3.50;99.90
12119;DHT22;6123;48.864;9.200;2022-12-07T04:16:21;3.40;99.90
12119;DHT22;6123;48.864;9.200;2022-12-07T04:18:49;3.50;99.90
12119;DHT22;6123;48.864;9.200;2022-12-07T04:21:15;3.50;99.90
12119;DHT22;6123;48.864;9.200;2022-12-07T04:23:40;3.50;99.90
12119;DHT22;6123;48.864;9.200;2022-12-07T04:26:06;3.50;99.90
12119;DHT22;6123;48.864;9.200;2022-12-07T04:28:32;3.50;99.90
12119;DHT22;6123;48.864;9.200;2022-12-07T04:30:57;3.50;99.90
12119;DHT22;6123;48.864;9.200;2022-12-07T04:33:23;3.60;99.90
12119;DHT22;6123;48.864;9.200;2022-12-07T04:35:49;3.60;99.90
12119;DHT22;6123;48.864;9.200;2022-12-07T04:38:14;3.60;99.90
12119;DHT22;6123;48.864;9.200;2022-12-07T04:40:40;3.50;99.90
12119;DHT22;6123;48.864;9.200;2022-12-07T04:43:05;3.50;99.90
12119;DHT22;6123;48.864;9.200;2022-12-07T04:45:33;3.50;99.90
12119;DHT22;6123;48.864;9.200;2022-12-07T04:48:01;3.50;99.90
12119;DHT22;6123;48.864;9.200;2022-12-07T04:50:27;3.50;99.90
12119;DHT22;6123;48.864;9.200;2022-12-07T04:52:55;3.50;99.90
12119;DHT22;6123;48.864;9.200;2022-12-07T04:55:20;3.50;99.90
12119;DHT22;6123;48.864;9.200;2022-12-07T04:57:48;3.40;99.90
12119;DHT22;6123;48.864;9.200;2022-12-07T05:00:14;3.30;99.90
12119;DHT22;6123;48.864;9.200;2022-12-07T05:02:39;3.30;99.90
12119;DHT22;6123;48.864;9.200;2022-12-07T05:05:05;3.30;99.90
12119;DHT22;6123;48.864;9.200;2022-12-07T05:07:31;3.20;99.90
12119;DHT22;6123;48.864;9.200;2022-12-07T05:09:57;3.10;99.90
12119;DHT22;6123;48.864;9.200;2022-12-07T05:12:22;3.00;99.90
12119;DHT22;6123;48.864;9.200;2022-12-07T05:14:48;3.00;99.90
12119;DHT22;6123;48.864;9.200;2022-12-07T05:17:13;3.10;99.90
12119;DHT22;6123;48.864;9.200;2022-12-07T05:19:42;3.10;99.90
12119;DHT22;6123;48.864;9.200;2022-12-07T05:22:07;2.90;99.90
12119;DHT22;6123;48.864;9.200;2022-12-07T05:24:35;2.80;99.90
12119;DHT22;6123;48.864;9.200;2022-12-07T05:27:01;2.80;99.90
12119;DHT22;6123;48.864;9.200;2022-12-07T05:29:26;2.80;99.90
12119;DHT22;6123;48.864;9.200;2022-12-07T05:31:52;3.00;99.90
12119;DHT22;6123;48.864;9.200;2022-12-07T05:34:17;3.00;99.90
12119;DHT22;6123;48.864;9.200;2022-12-07T05:36:43;3.00;99.90
12119;DHT22;6123;48.864;9.200;2022-12-07T05:39:10;2.90;99.90
12119;DHT22;6123;48.864;9.200;2022-12-07T05:41:35;2.90;99.90
12119;DHT22;6123;48.864;9.200;2022-12-07T05:44:22;2.80;99.90
12119;DHT22;6123;48.864;9.200;2022-12-07T05:46:48;2.70;99.90
12119;DHT22;6123;48.864;9.200;2022-12-07T05:49:13;2.80;99.90
12119;DHT22;6123;48.864;9.200;2022-12-07T05:51:41;2.80;99.90
12119;DHT22;6123;48.864;9.200;2022-12-07T05:54:07;2.80;99.90
12119;DHT22;6123;48.864;9.200;2022-12-07T05:56:32;2.90;99.90
12119;DHT22;6123;48.864;9.200;2022-12-07T05:58:58;2.90;99.90
12119;DHT22;6123;48.864;9.200;2022-12-07T06:01:45;3.00;99.90
12119;DHT22;6123;48.864;9.200;2022-12-07T06:04:12;3.00;99.90
12119;DHT22;6123;48.864;9.200;2022-12-07T06:06:38;2.90;99.90
12119;DHT22;6123;48.864;9.200;2022-12-07T06:09:04;2.90;99.90
12119;DHT22;6123;48.864;9.200;2022-12-07T06:11:30;3.10;99.90
12119;DHT22;6123;48.864;9.200;2022-12-07T06:14:14;3.10;99.90
12119;DHT22;6123;48.864;9.200;2022-12-07T06:16:40;3.10;99.90
12119;DHT22;6123;48.864;9.200;2022-12-07T06:19:05;3.10;99.90
12119;DHT22;6123;48.864;9.200;2022-12-07T06:21:31;3.10;99.90
12119;DHT22;6123;48.864;9.200;2022-12-07T06:23:59;3.00;99.90
12119;DHT22;6123;48.864;9.200;2022-12-07T06:26:24;3.10;99.90
12119;DHT22;6123;48.864;9.200;2022-12-07T06:28:52;3.10;99.90
12119;DHT22;6123;48.864;9.200;2022-12-07T06:31:18;3.10;99.90
12119;DHT22;6123;48.864;9.200;2022-12-07T06:33:44;3.20;99.90
12119;DHT22;6123;48.864;9.200;2022-12-07T06:36:10;3.20;99.90
12119;DHT22;6123;48.864;9.200;2022-12-07T06:38:37;3.20;99.90
12119;DHT22;6123;48.864;9.200;2022-12-07T06:41:04;3.10;99.90
12119;DHT22;6123;48.864;9.200;2022-12-07T06:43:32;3.10;99.90
12119;DHT22;6123;48.864;9.200;2022-12-07T06:45:58;3.10;99.90
12119;DHT22;6123;48.864;9.200;2022-12-07T06:48:24;3.00;99.90
12119;DHT22;6123;48.864;9.200;2022-12-07T06:50:49;3.00;99.90
12119;DHT22;6123;48.864;9.200;2022-12-07T06:53:15;3.00;99.90
12119;DHT22;6123;48.864;9.200;2022-12-07T06:55:41;3.00;99.90
12119;DHT22;6123;48.864;9.200;2022-12-07T06:58:07;3.10;99.90
12119;DHT22;6123;48.864;9.200;2022-12-07T07:00:32;3.00;99.90
12119;DHT22;6123;48.864;9.200;2022-12-07T07:03:00;3.10;99.90
12119;DHT22;6123;48.864;9.200;2022-12-07T07:05:26;3.10;99.90
12119;DHT22;6123;48.864;9.200;2022-12-07T07:07:54;3.20;99.90
12119;DHT22;6123;48.864;9.200;2022-12-07T07:10:20;3.30;99.90
12119;DHT22;6123;48.864;9.200;2022-12-07T07:12:45;3.30;99.90
12119;DHT22;6123;48.864;9.200;2022-12-07T07:15:11;3.40;99.90
12119;DHT22;6123;48.864;9.200;2022-12-07T07:17:37;3.30;99.90
12119;DHT22;6123;48.864;9.200;2022-12-07T07:20:03;3.20;99.90
12119;DHT22;6123;48.864;9.200;2022-12-07T07:22:32;3.20;99.90
12119;DHT22;6123;48.864;9.200;2022-12-07T07:25:00;3.20;99.90
12119;DHT22;6123;48.864;9.200;2022-12-07T07:27:25;3.20;99.90
12119;DHT22;6123;48.864;9.200;2022-12-07T07:29:53;3.30;99.90
12119;DHT22;6123;48.864;9.200;2022-12-07T07:32:19;3.50;99.90
12119;DHT22;6123;48.864;9.200;2022-12-07T07:34:44;3.40;99.90
12119;DHT22;6123;48.864;9.200;2022-12-07T07:37:10;3.50;99.90
12119;DHT22;6123;48.864;9.200;2022-12-07T07:39:38;3.50;99.90
12119;DHT22;6123;48.864;9.200;2022-12-07T07:42:04;3.40;99.90
12119;DHT22;6123;48.864;9.200;2022-12-07T07:44:29;3.50;99.90
12119;DHT22;6123;48.864;9.200;2022-12-07T07:46:55;3.60;99.90
12119;DHT22;6123;48.864;9.200;2022-12-07T07:49:21;3.60;99.90
12119;DHT22;6123;48.864;9.200;2022-12-07T07:51:46;3.60;99.90
12119;DHT22;6123;48.864;9.200;2022-12-07T07:54:12;3.60;99.90
12119;DHT22;6123;48.864;9.200;2022-12-07T07:56:37;3.70;99.90
12119;DHT22;6123;48.864;9.200;2022-12-07T07:59:05;3.70;99.90
12119;DHT22;6123;48.864;9.200;2022-12-07T08:01:33;3.60;99.90
12119;DHT22;6123;48.864;9.200;2022-12-07T08:03:59;3.60;99.90
12119;DHT22;6123;48.864;9.200;2022-12-07T08:06:25;3.60;99.90
12119;DHT22;6123;48.864;9.200;2022-12-07T08:08:56;3.70;99.90
12119;DHT22;6123;48.864;9.200;2022-12-07T08:11:23;3.60;99.90
12119;DHT22;6123;48.864;9.200;2022-12-07T08:13:49;3.70;99.90
12119;DHT22;6123;48.864;9.200;2022-12-07T08:16:15;3.70;99.90
12119;DHT22;6123;48.864;9.200;2022-12-07T08:18:42;3.70;99.90
12119;DHT22;6123;48.864;9.200;2022-12-07T08:21:11;3.80;99.90
12119;DHT22;6123;48.864;9.200;2022-12-07T08:23:37;3.90;99.90
12119;DHT22;6123;48.864;9.200;2022-12-07T08:26:08;3.90;99.90
12119;DHT22;6123;48.864;9.200;2022-12-07T08:28:34;3.90;99.90
12119;DHT22;6123;48.864;9.200;2022-12-07T08:31:05;4.00;99.90
12119;DHT22;6123;48.864;9.200;2022-12-07T08:33:33;4.00;99.90
12119;DHT22;6123;48.864;9.200;2022-12-07T08:36:07;4.00;99.90
12119;DHT22;6123;48.864;9.200;2022-12-07T08:38:38;4.10;99.90
12119;DHT22;6123;48.864;9.200;2022-12-07T08:41:04;4.00;99.90
12119;DHT22;6123;48.864;9.200;2022-12-07T08:43:30;4.10;99.90
12119;DHT22;6123;48.864;9.200;2022-12-07T08:48:39;4.30;99.90
12119;DHT22;6123;48.864;9.200;2022-12-07T08:51:06;4.30;99.90
12119;DHT22;6123;48.864;9.200;2022-12-07T08:53:37;4.30;99.90
12119;DHT22;6123;48.864;9.200;2022-12-07T08:56:04;4.40;99.90
12119;DHT22;6123;48.864;9.200;2022-12-07T08:58:32;4.40;99.90
12119;DHT22;6123;48.864;9.200;2022-12-07T09:00:57;4.40;99.90
12119;DHT22;6123;48.864;9.200;2022-12-07T09:03:23;4.40;99.90
12119;DHT22;6123;48.864;9.200;2022-12-07T09:05:49;4.40;99.90
12119;DHT22;6123;48.864;9.200;2022-12-07T09:08:19;4.60;99.90
12119;DHT22;6123;48.864;9.200;2022-12-07T09:10:47;4.70;99.90
12119;DHT22;6123;48.864;9.200;2022-12-07T09:13:13;4.60;99.90
12119;DHT22;6123;48.864;9.200;2022-12-07T09:15:39;4.60;99.90
12119;DHT22;6123;48.864;9.200;2022-12-07T09:18:05;4.70;99.90
12119;DHT22;6123;48.864;9.200;2022-12-07T09:20:31;4.80;99.90
12119;DHT22;6123;48.864;9.200;2022-12-07T09:22:56;4.80;99.90
12119;DHT22;6123;48.864;9.200;2022-12-07T09:25:22;4.90;99.90
12119;DHT22;6123;48.864;9.200;2022-12-07T09:27:58;5.00;99.90
12119;DHT22;6123;48.864;9.200;2022-12-07T09:30:24;4.90;99.90
12119;DHT22;6123;48.864;9.200;2022-12-07T09:32:53;4.80;99.90
12119;DHT22;6123;48.864;9.200;2022-12-07T09:35:18;4.90;99.90
12119;DHT22;6123;48.864;9.200;2022-12-07T09:37:44;4.90;99.90
12119;DHT22;6123;48.864;9.200;2022-12-07T09:40:10;5.00;99.90
12119;DHT22;6123;48.864;9.200;2022-12-07T09:42:41;5.20;99.90
12119;DHT22;6123;48.864;9.200;2022-12-07T09:45:18;5.20;99.90
12119;DHT22;6123;48.864;9.200;2022-12-07T09:47:45;5.20;99.90
12119;DHT22;6123;48.864;9.200;2022-12-07T09:50:22;5.20;99.90
12119;DHT22;6123;48.864;9.200;2022-12-07T09:52:52;5.30;99.90
12119;DHT22;6123;48.864;9.200;2022-12-07T09:55:26;5.30;99.90
12119;DHT22;6123;48.864;9.200;2022-12-07T09:57:53;5.40;99.90
12119;DHT22;6123;48.864;9.200;2022-12-07T10:00:21;5.20;99.90
12119;DHT22;6123;48.864;9.200;2022-12-07T10:03:00;5.10;99.90
12119;DHT22;6123;48.864;9.200;2022-12-07T10:05:29;5.10;99.90
12119;DHT22;6123;48.864;9.200;2022-12-07T10:07:56;5.10;99.90
12119;DHT22;6123;48.864;9.200;2022-12-07T10:10:28;5.10;99.90
12119;DHT22;6123;48.864;9.200;2022-12-07T10:13:04;5.00;99.90
12119;DHT22;6123;48.864;9.200;2022-12-07T10:15:52;4.80;99.90
12119;DHT22;6123;48.864;9.200;2022-12-07T10:23:40;4.80;99.90
12119;DHT22;6123;48.864;9.200;2022-12-07T10:26:26;4.80;99.90
12119;DHT22;6123;48.864;9.200;2022-12-07T10:28:54;4.80;99.90
12119;DHT22;6123;48.864;9.200;2022-12-07T10:31:22;4.90;99.90
12119;DHT22;6123;48.864;9.200;2022-12-07T10:33:50;4.90;99.90
12119;DHT22;6123;48.864;9.200;2022-12-07T10:36:34;4.80;99.90
12119;DHT22;6123;48.864;9.200;2022-12-07T10:39:22;4.80;99.90
12119;DHT22;6123;48.864;9.200;2022-12-07T10:41:58;4.70;99.90
12119;DHT22;6123;48.864;9.200;2022-12-07T10:44:31;4.80;99.90
12119;DHT22;6123;48.864;9.200;2022-12-07T10:47:12;4.80;99.90
12119;DHT22;6123;48.864;9.200;2022-12-07T10:52:13;4.80;99.90
12119;DHT22;6123;48.864;9.200;2022-12-07T11:00:00;4.80;99.90
12119;DHT22;6123;48.864;9.200;2022-12-07T11:05:25;4.80;99.90
12119;DHT22;6123;48.864;9.200;2022-12-07T11:13:30;4.60;99.90
12119;DHT22;6123;48.864;9.200;2022-12-07T11:21:48;4.70;99.90
12119;DHT22;6123;48.864;9.200;2022-12-07T11:24:15;4.80;99.90
12119;DHT22;6123;48.864;9.200;2022-12-07T11:38:22;4.40;99.90
12119;DHT22;6123;48.864;9.200;2022-12-07T11:40:50;4.30;99.90
12119;DHT22;6123;48.864;9.200;2022-12-07T11:43:32;4.20;99.90
12119;DHT22;6123;48.864;9.200;2022-12-07T11:48:40;4.30;99.90
12119;DHT22;6123;48.864;9.200;2022-12-07T11:51:09;4.40;99.90
12119;DHT22;6123;48.864;9.200;2022-12-07T11:53:46;4.50;99.90
12119;DHT22;6123;48.864;9.200;2022-12-07T11:56:17;4.50;99.90
12119;DHT22;6123;48.864;9.200;2022-12-07T11:58:51;4.40;99.90
12119;DHT22;6123;48.864;9.200;2022-12-07T12:06:43;4.60;99.90
12119;DHT22;6123;48.864;9.200;2022-12-07T12:09:17;4.60;99.90
12119;DHT22;6123;48.864;9.200;2022-12-07T12:17:14;4.50;99.90
12119;DHT22;6123;48.864;9.200;2022-12-07T12:20:04;4.60;99.90
12119;DHT22;6123;48.864;9.200;2022-12-07T12:22:40;4.60;99.90
12119;DHT22;6123;48.864;9.200;2022-12-07T12:25:35;4.50;99.90
12119;DHT22;6123;48.864;9.200;2022-12-07T12:28:04;4.60;99.90
12119;DHT22;6123;48.864;9.200;2022-12-07T12:30:38;4.70;99.90
12119;DHT22;6123;48.864;9.200;2022-12-07T12:33:33;4.60;99.90
12119;DHT22;6123;48.864;9.200;2022-12-07T12:38:52;4.70;99.90
12119;DHT22;6123;48.864;9.200;2022-12-07T12:51:54;4.60;99.90
12119;DHT22;6123;48.864;9.200;2022-12-07T12:59:55;4.60;99.90
12119;DHT22;6123;48.864;9.200;2022-12-07T13:02:27;4.50;99.90
12119;DHT22;6123;48.864;9.200;2022-12-07T13:04:54;4.60;99.90
12119;DHT22;6123;48.864;9.200;2022-12-07T13:29:01;4.60;99.90
12119;DHT22;6123;48.864;9.200;2022-12-07T13:31:44;4.60;99.90
12119;DHT22;6123;48.864;9.200;2022-12-07T13:39:28;4.50;99.90
12119;DHT22;6123;48.864;9.200;2022-12-07T13:41:58;4.50;99.90
12119;DHT22;6123;48.864;9.200;2022-12-07T13:44:26;4.50;99.90
12119;DHT22;6123;48.864;9.200;2022-12-07T13:49:57;4.60;99.90
12119;DHT22;6123;48.864;9.200;2022-12-07T13:52:25;4.70;99.90
12119;DHT22;6123;48.864;9.200;2022-12-07T13:57:32;4.80;99.90
12119;DHT22;6123;48.864;9.200;2022-12-07T14:00:00;4.80;99.90
12119;DHT22;6123;48.864;9.200;2022-12-07T14:02:29;4.90;99.90
12119;DHT22;6123;48.864;9.200;2022-12-07T14:07:52;5.00;99.90
12119;DHT22;6123;48.864;9.200;2022-12-07T14:10:33;5.00;99.90
12119;DHT22;6123;48.864;9.200;2022-12-07T14:13:00;4.70;99.90
12119;DHT22;6123;48.864;9.200;2022-12-07T14:15:34;4.80;99.90
12119;DHT22;6123;48.864;9.200;2022-12-07T14:18:02;4.90;99.90
12119;DHT22;6123;48.864;9.200;2022-12-07T14:23:00;4.90;99.90
12119;DHT22;6123;48.864;9.200;2022-12-07T14:25:48;4.80;99.90
12119;DHT22;6123;48.864;9.200;2022-12-07T14:28:35;4.80;99.90
12119;DHT22;6123;48.864;9.200;2022-12-07T14:31:02;4.80;99.90
12119;DHT22;6123;48.864;9.200;2022-12-07T14:33:30;4.80;99.90
12119;DHT22;6123;48.864;9.200;2022-12-07T14:35:58;4.80;99.90
12119;DHT22;6123;48.864;9.200;2022-12-07T14:38:26;4.60;99.90
12119;DHT22;6123;48.864;9.200;2022-12-07T14:40:53;4.50;99.90
12119;DHT22;6123;48.864;9.200;2022-12-07T14:43:19;4.50;99.90
12119;DHT22;6123;48.864;9.200;2022-12-07T14:45:45;4.60;99.90
12119;DHT22;6123;48.864;9.200;2022-12-07T14:48:14;4.50;99.90
12119;DHT22;6123;48.864;9.200;2022-12-07T14:50:49;4.50;99.90
12119;DHT22;6123;48.864;9.200;2022-12-07T14:53:18;4.40;99.90
12119;DHT22;6123;48.864;9.200;2022-12-07T14:55:44;4.50;99.90
12119;DHT22;6123;48.864;9.200;2022-12-07T14:58:17;4.40;99.90
12119;DHT22;6123;48.864;9.200;2022-12-07T15:00:44;4.40;99.90
12119;DHT22;6123;48.864;9.200;2022-12-07T15:03:12;4.40;99.90
12119;DHT22;6123;48.864;9.200;2022-12-07T15:05:38;4.30;99.90
12119;DHT22;6123;48.864;9.200;2022-12-07T15:08:05;4.20;99.90
12119;DHT22;6123;48.864;9.200;2022-12-07T15:10:33;4.10;99.90
12119;DHT22;6123;48.864;9.200;2022-12-07T15:12:59;4.00;99.90
12119;DHT22;6123;48.864;9.200;2022-12-07T15:15:46;4.10;99.90
12119;DHT22;6123;48.864;9.200;2022-12-07T15:18:12;4.10;99.90
12119;DHT22;6123;48.864;9.200;2022-12-07T15:20:37;4.10;99.90
12119;DHT22;6123;48.864;9.200;2022-12-07T15:23:04;4.00;99.90
12119;DHT22;6123;48.864;9.200;2022-12-07T15:25:30;4.00;99.90
12119;DHT22;6123;48.864;9.200;2022-12-07T15:27:55;4.10;99.90
12119;DHT22;6123;48.864;9.200;2022-12-07T15:30:21;4.00;99.90
12119;DHT22;6123;48.864;9.200;2022-12-07T15:32:50;4.00;99.90
12119;DHT22;6123;48.864;9.200;2022-12-07T15:35:16;4.00;99.90
12119;DHT22;6123;48.864;9.200;2022-12-07T15:37:42;4.00;99.90
12119;DHT22;6123;48.864;9.200;2022-12-07T15:40:08;4.00;99.90
12119;DHT22;6123;48.864;9.200;2022-12-07T15:42:36;4.00;99.90
12119;DHT22;6123;48.864;9.200;2022-12-07T15:45:02;3.90;99.90
12119;DHT22;6123;48.864;9.200;2022-12-07T15:47:33;3.90;99.90
12119;DHT22;6123;48.864;9.200;2022-12-07T15:49:59;4.00;99.90
12119;DHT22;6123;48.864;9.200;2022-12-07T15:52:29;3.90;99.90
12119;DHT22;6123;48.864;9.200;2022-12-07T15:54:55;3.90;99.90
12119;DHT22;6123;48.864;9.200;2022-12-07T15:57:21;3.80;99.90
12119;DHT22;6123;48.864;9.200;2022-12-07T15:59:47;3.80;99.90
12119;DHT22;6123;48.864;9.200;2022-12-07T16:02:12;3.90;99.90
12119;DHT22;6123;48.864;9.200;2022-12-07T16:04:38;3.80;99.90
12119;DHT22;6123;48.864;9.200;2022-12-07T16:07:04;3.80;99.90
12119;DHT22;6123;48.864;9.200;2022-12-07T16:09:34;3.80;99.90
12119;DHT22;6123;48.864;9.200;2022-12-07T16:12:00;3.70;99.90
12119;DHT22;6123;48.864;9.200;2022-12-07T16:14:26;3.70;99.90
12119;DHT22;6123;48.864;9.200;2022-12-07T16:16:52;3.70;99.90
12119;DHT22;6123;48.864;9.200;2022-12-07T16:19:17;3.70;99.90
12119;DHT22;6123;48.864;9.200;2022-12-07T16:21:43;3.60;99.90
12119;DHT22;6123;48.864;9.200;2022-12-07T16:24:09;3.70;99.90
12119;DHT22;6123;48.864;9.200;2022-12-07T16:26:35;3.80;99.90
12119;DHT22;6123;48.864;9.200;2022-12-07T16:29:01;3.70;99.90
12119;DHT22;6123;48.864;9.200;2022-12-07T16:31:27;3.70;99.90
12119;DHT22;6123;48.864;9.200;2022-12-07T16:33:55;3.50;99.90
12119;DHT22;6123;48.864;9.200;2022-12-07T16:36:24;3.50;99.90
12119;DHT22;6123;48.864;9.200;2022-12-07T16:38:51;3.60;99.90
12119;DHT22;6123;48.864;9.200;2022-12-07T16:41:17;3.60;99.90
12119;DHT22;6123;48.864;9.200;2022-12-07T16:43:43;3.60;99.90
12119;DHT22;6123;48.864;9.200;2022-12-07T16:46:09;3.60;99.90
12119;DHT22;6123;48.864;9.200;2022-12-07T16:48:37;3.60;99.90
12119;DHT22;6123;48.864;9.200;2022-12-07T16:51:06;3.60;99.90
12119;DHT22;6123;48.864;9.200;2022-12-07T16:53:35;3.90;99.90
12119;DHT22;6123;48.864;9.200;2022-12-07T16:56:01;3.50;99.90
12119;DHT22;6123;48.864;9.200;2022-12-07T16:58:27;3.50;99.90
12119;DHT22;6123;48.864;9.200;2022-12-07T17:00:55;3.60;99.90
12119;DHT22;6123;48.864;9.200;2022-12-07T17:03:20;3.50;99.90
12119;DHT22;6123;48.864;9.200;2022-12-07T17:05:47;3.60;99.90
12119;DHT22;6123;48.864;9.200;2022-12-07T17:08:15;3.50;99.90
12119;DHT22;6123;48.864;9.200;2022-12-07T17:10:43;3.60;99.90
12119;DHT22;6123;48.864;9.200;2022-12-07T17:13:09;3.70;99.90
12119;DHT22;6123;48.864;9.200;2022-12-07T17:16:05;3.70;99.90
12119;DHT22;6123;48.864;9.200;2022-12-07T17:18:33;3.70;99.90
12119;DHT22;6123;48.864;9.200;2022-12-07T17:21:04;3.70;99.90
12119;DHT22;6123;48.864;9.200;2022-12-07T17:23:31;3.60;99.90
12119;DHT22;6123;48.864;9.200;2022-12-07T17:26:07;3.60;99.90
12119;DHT22;6123;48.864;9.200;2022-12-07T17:28:35;3.60;99.90
12119;DHT22;6123;48.864;9.200;2022-12-07T17:31:05;3.60;99.90
12119;DHT22;6123;48.864;9.200;2022-12-07T17:33:32;3.60;99.90
12119;DHT22;6123;48.864;9.200;2022-12-07T17:35:58;3.60;99.90
12119;DHT22;6123;48.864;9.200;2022-12-07T17:38:24;3.50;99.90
12119;DHT22;6123;48.864;9.200;2022-12-07T17:40:49;3.60;99.90
12119;DHT22;6123;48.864;9.200;2022-12-07T17:43:15;3.60;99.90
12119;DHT22;6123;48.864;9.200;2022-12-07T17:45:41;3.60;99.90
12119;DHT22;6123;48.864;9.200;2022-12-07T17:48:09;3.60;99.90
12119;DHT22;6123;48.864;9.200;2022-12-07T17:50:34;3.60;99.90
12119;DHT22;6123;48.864;9.200;2022-12-07T17:53:18;3.60;99.90
12119;DHT22;6123;48.864;9.200;2022-12-07T17:55:44;3.60;99.90
12119;DHT22;6123;48.864;9.200;2022-12-07T17:58:10;3.60;99.90
12119;DHT22;6123;48.864;9.200;2022-12-07T18:00:35;3.60;99.90
12119;DHT22;6123;48.864;9.200;2022-12-07T18:03:06;3.60;99.90
12119;DHT22;6123;48.864;9.200;2022-12-07T18:05:36;3.60;99.90
12119;DHT22;6123;48.864;9.200;2022-12-07T18:08:03;3.60;99.90
12119;DHT22;6123;48.864;9.200;2022-12-07T18:10:29;3.80;99.90
12119;DHT22;6123;48.864;9.200;2022-12-07T18:12:54;3.70;99.90
12119;DHT22;6123;48.864;9.200;2022-12-07T18:15:40;3.70;99.90
12119;DHT22;6123;48.864;9.200;2022-12-07T18:18:06;3.70;99.90
12119;DHT22;6123;48.864;9.200;2022-12-07T18:20:32;3.60;99.90
12119;DHT22;6123;48.864;9.200;2022-12-07T18:22:58;3.70;99.90
12119;DHT22;6123;48.864;9.200;2022-12-07T18:25:23;3.70;99.90
12119;DHT22;6123;48.864;9.200;2022-12-07T18:27:49;3.70;99.90
12119;DHT22;6123;48.864;9.200;2022-12-07T18:30:15;3.60;99.90
12119;DHT22;6123;48.864;9.200;2022-12-07T18:32:42;3.60;99.90
12119;DHT22;6123;48.864;9.200;2022-12-07T18:35:08;3.60;99.90
12119;DHT22;6123;48.864;9.200;2022-12-07T18:37:34;3.60;99.90
12119;DHT22;6123;48.864;9.200;2022-12-07T18:40:02;3.70;99.90
12119;DHT22;6123;48.864;9.200;2022-12-07T18:42:27;3.70;99.90
12119;DHT22;6123;48.864;9.200;2022-12-07T18:44:53;3.70;99.90